Flight NumberQSM1508 Date22.01.2021
Departure AirportOIIE Arrival AirportLTFM
Departure Time8.51Arrival Time12.06
Pilot In CommandAli Khoshnoodi Block Time3.20 Hours
Pilot Rating95 % AircraftEP-QIJ [ 737-900ER ]


Distance1,110.00 Nm. Passengers176
Fuel Used8,849 Kg. Cargo153 Kg
Expense Details Income Details
Fuel Cost4,303 v$Ticket Sales66,704 v$
Pilot Salary15,943 v$ Cargo income338.00 v$
Crew Salary880 v$ Bonus18,980 v$
Gross Profit97,940 v$ ( 2,448,500 v$ )

Client Versionv2.4.0.3 Max Simrate1
Flight Critique Pilot CommentsLTFM 221150Z 21022KT CAVOK 14/05 Q1021 NOSIG RMK RWY17L 21024KT RWY34L 20023G33KT RWY16R 20020G30KT RWY36 21023KT RWY18 21024KT RWY 17L